Time;durP1;ratioP1;P1;durP2;ratioP2;P2;SDS_P1;SDS_P2;PMS_P1;PMS_P2;Temp;Humidity;BMP_temperature;BMP_pressure;BME280_temperature;BME280_humidity;BME280_pressure;Samples;Min_cycle;Max_cycle;Signal;HPM_P1;HPM_P2
2023/08/24 00:00:13;;;;;;;12.43;7.97;;;;;;;;;;5073069;28;20024;-62
2023/08/24 00:02:38;;;;;;;10.77;6.80;;;;;;;;;;5070923;28;20600;-63
2023/08/24 00:05:05;;;;;;;9.27;8.30;;;;;;;;;;5073079;28;20020;-62
2023/08/24 00:07:30;;;;;;;17.42;8.07;;;;;;;;;;5070970;28;20040;-62
2023/08/24 00:09:55;;;;;;;15.48;7.82;;;;;;;;;;5071111;28;20019;-62
2023/08/24 00:12:20;;;;;;;8.35;7.20;;;;;;;;;;5071088;28;20068;-62
2023/08/24 00:14:46;;;;;;;10.23;6.30;;;;;;;;;;5072459;28;20336;-63
2023/08/24 00:17:11;;;;;;;7.00;6.27;;;;;;;;;;5070769;28;20037;-63
2023/08/24 00:19:36;;;;;;;11.75;8.20;;;;;;;;;;5072427;28;20016;-62
2023/08/24 00:22:01;;;;;;;10.90;6.63;;;;;;;;;;5071195;28;20123;-63
2023/08/24 00:24:26;;;;;;;8.53;7.40;;;;;;;;;;5071726;28;20059;-63
2023/08/24 00:26:52;;;;;;;8.75;5.88;;;;;;;;;;5071237;28;20032;-63
2023/08/24 00:29:17;;;;;;;10.10;5.77;;;;;;;;;;5072659;28;20086;-62
2023/08/24 00:31:42;;;;;;;5.63;4.57;;;;;;;;;;5070263;28;20040;-62
2023/08/24 00:34:07;;;;;;;6.70;5.70;;;;;;;;;;5072315;28;20016;-63
2023/08/24 00:36:33;;;;;;;9.63;6.47;;;;;;;;;;5070560;28;20619;-62
2023/08/24 00:38:58;;;;;;;11.80;7.97;;;;;;;;;;5071817;28;20044;-62
2023/08/24 00:41:25;;;;;;;8.07;7.27;;;;;;;;;;5070473;28;20102;-62
2023/08/24 00:43:50;;;;;;;8.20;7.50;;;;;;;;;;5071949;28;20459;-62
2023/08/24 00:46:15;;;;;;;10.00;7.38;;;;;;;;;;5070484;28;20020;-62
2023/08/24 00:48:40;;;;;;;8.47;6.63;;;;;;;;;;5072063;28;20046;-61
2023/08/24 00:51:05;;;;;;;7.10;6.40;;;;;;;;;;5070483;28;21012;-61
2023/08/24 00:53:31;;;;;;;9.50;7.03;;;;;;;;;;5071315;28;21206;-62
2023/08/24 00:55:56;;;;;;;17.67;8.63;;;;;;;;;;5070106;28;20036;-62
2023/08/24 00:58:22;;;;;;;8.45;7.28;;;;;;;;;;5072026;28;20020;-62
2023/08/24 01:00:52;;;;;;;11.85;9.30;;;;;;;;;;5069841;28;20388;-62
2023/08/24 01:03:17;;;;;;;11.00;9.40;;;;;;;;;;5071311;28;20025;-62
2023/08/24 01:05:43;;;;;;;13.67;8.30;;;;;;;;;;5070371;28;20024;-61
2023/08/24 01:08:08;;;;;;;15.65;11.30;;;;;;;;;;5071283;28;20023;-62
2023/08/24 01:10:38;;;;;;;11.90;10.70;;;;;;;;;;5069911;28;20028;-61
2023/08/24 01:13:04;;;;;;;12.05;10.20;;;;;;;;;;5071330;28;20488;-62
2023/08/24 01:15:29;;;;;;;17.77;11.52;;;;;;;;;;5069065;28;20016;-61
2023/08/24 01:17:56;;;;;;;10.83;9.73;;;;;;;;;;5071651;28;20500;-61
2023/08/24 01:20:22;;;;;;;12.68;10.85;;;;;;;;;;5071210;28;20450;-62
2023/08/24 01:22:56;;;;;;;15.10;11.43;;;;;;;;;;5069380;28;20060;-61
2023/08/24 01:25:30;;;;;;;24.58;13.50;;;;;;;;;;5070973;28;20028;-61
2023/08/24 01:27:56;;;;;;;14.88;10.85;;;;;;;;;;5070181;28;20097;-61
2023/08/24 01:30:21;;;;;;;21.85;12.38;;;;;;;;;;5070647;28;20024;-61
2023/08/24 01:32:46;;;;;;;15.52;10.23;;;;;;;;;;5069913;28;20353;-61
2023/08/24 01:35:11;;;;;;;27.63;12.03;;;;;;;;;;5070853;28;20177;-61
2023/08/24 01:37:37;;;;;;;17.10;11.70;;;;;;;;;;5068567;28;20520;-61
2023/08/24 01:40:05;;;;;;;12.25;11.02;;;;;;;;;;5071451;28;20036;-61
2023/08/24 01:42:33;;;;;;;12.77;10.00;;;;;;;;;;5069116;28;20131;-61
2023/08/24 01:45:01;;;;;;;14.20;10.13;;;;;;;;;;5069976;28;20031;-61
2023/08/24 01:47:27;;;;;;;12.60;9.95;;;;;;;;;;5069481;28;20043;-62
2023/08/24 01:49:52;;;;;;;14.88;10.30;;;;;;;;;;5070923;28;20016;-62
2023/08/24 01:52:18;;;;;;;18.50;9.68;;;;;;;;;;5068940;28;20032;-62
2023/08/24 01:54:43;;;;;;;13.60;11.13;;;;;;;;;;5070331;28;20043;-61
2023/08/24 01:57:10;;;;;;;10.25;8.98;;;;;;;;;;5067448;28;20546;-61
2023/08/24 01:59:35;;;;;;;15.57;9.57;;;;;;;;;;5070100;28;20027;-62
2023/08/24 02:02:00;;;;;;;20.30;12.70;;;;;;;;;;5069128;28;20040;-61
2023/08/24 02:04:25;;;;;;;12.83;10.20;;;;;;;;;;5062404;28;20474;-61
2023/08/24 02:06:50;;;;;;;16.90;10.52;;;;;;;;;;5053582;28;21150;-61
2023/08/24 02:09:15;;;;;;;17.53;10.27;;;;;;;;;;5070741;28;20035;-62
2023/08/24 02:11:40;;;;;;;13.90;10.43;;;;;;;;;;5068821;28;20116;-61
2023/08/24 02:14:06;;;;;;;11.38;9.93;;;;;;;;;;5069795;28;20445;-61
2023/08/24 02:16:31;;;;;;;12.18;9.95;;;;;;;;;;5068814;28;20467;-62
2023/08/24 02:18:56;;;;;;;18.63;11.57;;;;;;;;;;5070334;28;20020;-62
2023/08/24 02:21:21;;;;;;;16.80;11.53;;;;;;;;;;5068589;28;20017;-61
2023/08/24 02:23:46;;;;;;;11.63;10.43;;;;;;;;;;5066992;28;20047;-61
2023/08/24 02:26:12;;;;;;;12.60;10.60;;;;;;;;;;5050501;28;20013;-60
2023/08/24 02:28:37;;;;;;;13.93;10.77;;;;;;;;;;5067721;28;20044;-60
2023/08/24 02:31:03;;;;;;;12.32;10.73;;;;;;;;;;5069195;28;20020;-61
2023/08/24 02:33:28;;;;;;;13.77;10.80;;;;;;;;;;5068262;28;20169;-61
2023/08/24 02:35:53;;;;;;;14.47;9.87;;;;;;;;;;5070551;28;20016;-61
2023/08/24 02:38:18;;;;;;;15.35;11.23;;;;;;;;;;5068042;28;20048;-61
2023/08/24 02:40:43;;;;;;;13.10;11.70;;;;;;;;;;5070317;28;20050;-61
2023/08/24 02:43:09;;;;;;;16.02;11.57;;;;;;;;;;5064890;28;20507;-61
2023/08/24 02:45:34;;;;;;;12.87;9.97;;;;;;;;;;5069532;28;20074;-62
2023/08/24 02:47:59;;;;;;;17.17;10.88;;;;;;;;;;5068752;28;20052;-62
2023/08/24 02:50:24;;;;;;;15.80;10.20;;;;;;;;;;5069947;28;20020;-62
2023/08/24 02:52:51;;;;;;;12.63;10.70;;;;;;;;;;5068149;28;20480;-61
2023/08/24 02:55:16;;;;;;;11.63;10.43;;;;;;;;;;5070520;28;20024;-62
2023/08/24 02:57:41;;;;;;;13.25;11.15;;;;;;;;;;5072460;28;20483;-61
2023/08/24 03:00:07;;;;;;;12.98;10.88;;;;;;;;;;5073669;28;20024;-62
2023/08/24 03:02:32;;;;;;;15.07;10.32;;;;;;;;;;5072475;28;20036;-61
2023/08/24 03:04:57;;;;;;;23.98;11.82;;;;;;;;;;5061675;28;20021;-61
2023/08/24 03:07:22;;;;;;;12.65;10.23;;;;;;;;;;5061124;28;20029;-62
2023/08/24 03:09:47;;;;;;;10.73;9.37;;;;;;;;;;5074098;28;20077;-62
2023/08/24 03:12:13;;;;;;;13.67;9.90;;;;;;;;;;5072540;28;20384;-61
2023/08/24 03:14:38;;;;;;;13.13;10.75;;;;;;;;;;5073199;28;20989;-62
2023/08/24 03:17:04;;;;;;;10.57;9.50;;;;;;;;;;5072569;28;20047;-62
2023/08/24 03:19:29;;;;;;;13.20;9.57;;;;;;;;;;5073556;28;20508;-63
2023/08/24 03:21:54;;;;;;;15.40;10.20;;;;;;;;;;5071709;28;20021;-63
2023/08/24 03:24:20;;;;;;;13.63;11.07;;;;;;;;;;5059527;28;20182;-62
2023/08/24 03:26:45;;;;;;;10.77;9.30;;;;;;;;;;5072259;28;20443;-61
2023/08/24 03:29:10;;;;;;;12.87;10.20;;;;;;;;;;5071988;28;20040;-61
2023/08/24 03:31:35;;;;;;;9.32;8.23;;;;;;;;;;5071827;28;20357;-61
2023/08/24 03:34:00;;;;;;;14.73;10.25;;;;;;;;;;5070027;28;20028;-61
2023/08/24 03:36:25;;;;;;;11.30;9.95;;;;;;;;;;5052553;28;20021;-63
2023/08/24 03:38:50;;;;;;;13.80;10.30;;;;;;;;;;5073162;28;20074;-63
2023/08/24 03:41:16;;;;;;;14.30;11.65;;;;;;;;;;5073337;28;20439;-63
2023/08/24 03:43:41;;;;;;;11.50;10.40;;;;;;;;;;5071471;28;20471;-63
2023/08/24 03:46:06;;;;;;;16.53;11.73;;;;;;;;;;5073460;28;20016;-63
2023/08/24 03:48:32;;;;;;;17.67;12.10;;;;;;;;;;5071723;28;20060;-63
2023/08/24 03:50:57;;;;;;;14.70;11.48;;;;;;;;;;5073120;28;20028;-64
2023/08/24 03:53:23;;;;;;;16.88;12.43;;;;;;;;;;5071231;28;20036;-63
2023/08/24 03:55:49;;;;;;;17.67;11.25;;;;;;;;;;5072294;28;20464;-63
2023/08/24 03:58:14;;;;;;;13.55;12.20;;;;;;;;;;5071448;28;20056;-63
2023/08/24 04:00:40;;;;;;;15.98;11.70;;;;;;;;;;5072868;28;20017;-63
2023/08/24 04:03:05;;;;;;;16.25;12.05;;;;;;;;;;5071684;28;20028;-63
2023/08/24 04:05:31;;;;;;;16.90;12.30;;;;;;;;;;5072141;28;20024;-63
2023/08/24 04:07:56;;;;;;;13.43;11.37;;;;;;;;;;5071015;28;20037;-62
2023/08/24 04:10:21;;;;;;;14.00;11.75;;;;;;;;;;5069746;28;20531;-62
2023/08/24 04:12:46;;;;;;;12.40;11.10;;;;;;;;;;5063274;28;20375;-62
2023/08/24 04:15:12;;;;;;;15.35;10.80;;;;;;;;;;5073000;28;20100;-62
2023/08/24 04:17:37;;;;;;;20.63;11.88;;;;;;;;;;5070642;28;20040;-63
2023/08/24 04:20:04;;;;;;;13.88;12.48;;;;;;;;;;5072446;28;20032;-63
2023/08/24 04:22:29;;;;;;;21.85;13.88;;;;;;;;;;5070719;28;20033;-63
2023/08/24 04:24:54;;;;;;;20.83;13.55;;;;;;;;;;5072657;28;20021;-63
2023/08/24 04:27:19;;;;;;;15.50;13.83;;;;;;;;;;5070468;28;20024;-62
2023/08/24 04:29:44;;;;;;;14.80;11.07;;;;;;;;;;5072688;28;20418;-62
2023/08/24 04:32:09;;;;;;;19.37;12.77;;;;;;;;;;5070967;28;20043;-62
2023/08/24 04:34:35;;;;;;;15.65;13.57;;;;;;;;;;5071895;28;20021;-62
2023/08/24 04:37:01;;;;;;;17.90;13.90;;;;;;;;;;5070646;28;20457;-62
2023/08/24 04:39:26;;;;;;;21.13;12.45;;;;;;;;;;5050771;28;20076;-62
2023/08/24 04:41:51;;;;;;;17.30;14.03;;;;;;;;;;5062044;28;20488;-62
2023/08/24 04:44:16;;;;;;;15.18;13.35;;;;;;;;;;5072313;28;20482;-62
2023/08/24 04:46:42;;;;;;;28.53;14.77;;;;;;;;;;5070523;28;20029;-62
2023/08/24 04:49:07;;;;;;;22.55;13.93;;;;;;;;;;5072016;28;20481;-62
2023/08/24 04:51:32;;;;;;;16.88;13.77;;;;;;;;;;5070221;28;20518;-62
2023/08/24 04:53:57;;;;;;;16.80;15.03;;;;;;;;;;5072324;28;20081;-62
2023/08/24 04:56:22;;;;;;;19.48;14.70;;;;;;;;;;5070072;28;20403;-62
2023/08/24 04:58:55;;;;;;;17.90;15.67;;;;;;;;;;5071264;28;20122;-64
2023/08/24 05:01:20;;;;;;;16.48;13.40;;;;;;;;;;5070244;28;20028;-67
2023/08/24 05:03:45;;;;;;;18.97;15.90;;;;;;;;;;5071939;28;20023;-66
2023/08/24 05:06:10;;;;;;;19.60;16.65;;;;;;;;;;5069356;28;20958;-62
2023/08/24 05:08:35;;;;;;;18.73;14.93;;;;;;;;;;5071166;28;20029;-58
2023/08/24 05:11:01;;;;;;;22.58;15.15;;;;;;;;;;5070200;28;20044;-62
2023/08/24 05:13:26;;;;;;;19.60;14.85;;;;;;;;;;5070713;28;20443;-61
2023/08/24 05:15:51;;;;;;;20.13;15.60;;;;;;;;;;5070051;28;20105;-61
2023/08/24 05:18:16;;;;;;;22.55;18.48;;;;;;;;;;5070678;28;20013;-61
2023/08/24 05:20:41;;;;;;;26.20;17.53;;;;;;;;;;5066743;28;20017;-61
2023/08/24 05:23:06;;;;;;;23.60;17.25;;;;;;;;;;5060004;28;20033;-60
2023/08/24 05:25:33;;;;;;;28.88;16.67;;;;;;;;;;5050403;28;20017;-61
2023/08/24 05:27:59;;;;;;;27.40;19.38;;;;;;;;;;5068352;28;20043;-61
2023/08/24 05:30:24;;;;;;;21.80;16.00;;;;;;;;;;5069675;28;20021;-60
2023/08/24 05:32:50;;;;;;;19.67;15.60;;;;;;;;;;5069991;28;20500;-62
2023/08/24 05:35:15;;;;;;;24.15;16.67;;;;;;;;;;5070531;28;20044;-62
2023/08/24 05:37:40;;;;;;;19.93;17.30;;;;;;;;;;5067839;28;20075;-62
2023/08/24 05:40:05;;;;;;;28.27;19.53;;;;;;;;;;5069977;28;20063;-62
2023/08/24 05:42:30;;;;;;;20.15;15.82;;;;;;;;;;5066375;28;20348;-62
2023/08/24 05:44:56;;;;;;;31.75;16.80;;;;;;;;;;5065182;28;20028;-62
2023/08/24 05:47:21;;;;;;;29.75;18.08;;;;;;;;;;5069118;28;20062;-62
2023/08/24 05:49:46;;;;;;;18.70;16.70;;;;;;;;;;5052822;28;20029;-62
2023/08/24 05:52:11;;;;;;;20.17;17.73;;;;;;;;;;5055607;28;20398;-62
2023/08/24 05:54:37;;;;;;;20.23;17.02;;;;;;;;;;5069436;28;20035;-60
2023/08/24 05:57:03;;;;;;;18.65;16.35;;;;;;;;;;5066967;28;20449;-61
2023/08/24 05:59:28;;;;;;;20.13;17.98;;;;;;;;;;5068860;28;20086;-61
2023/08/24 06:01:54;;;;;;;23.63;17.05;;;;;;;;;;5069154;28;20032;-61
2023/08/24 06:04:19;;;;;;;21.75;16.60;;;;;;;;;;5069728;28;20459;-61
2023/08/24 06:06:44;;;;;;;21.80;17.87;;;;;;;;;;5069132;28;20028;-62
2023/08/24 06:09:09;;;;;;;24.23;17.73;;;;;;;;;;5070545;28;20020;-61
2023/08/24 06:11:35;;;;;;;24.60;17.90;;;;;;;;;;5068622;28;20020;-61
2023/08/24 06:14:00;;;;;;;27.58;16.85;;;;;;;;;;5068988;28;20466;-61
2023/08/24 06:16:25;;;;;;;20.38;16.23;;;;;;;;;;5068703;28;20384;-69
2023/08/24 06:18:51;;;;;;;27.30;18.08;;;;;;;;;;5069516;28;20056;-63
2023/08/24 06:21:16;;;;;;;19.65;16.13;;;;;;;;;;5069973;28;20028;-61
2023/08/24 06:23:42;;;;;;;26.40;15.97;;;;;;;;;;5050138;28;20044;-61
2023/08/24 06:26:07;;;;;;;22.48;16.52;;;;;;;;;;5048168;28;20447;-61
2023/08/24 06:28:32;;;;;;;23.67;15.13;;;;;;;;;;5047705;28;20626;-61
2023/08/24 06:30:59;;;;;;;20.60;17.00;;;;;;;;;;5051021;28;20496;-61
2023/08/24 06:33:29;;;;;;;17.67;14.82;;;;;;;;;;5069544;28;20025;-61
2023/08/24 06:35:55;;;;;;;17.00;14.38;;;;;;;;;;5068654;28;20036;-61
2023/08/24 06:38:20;;;;;;;22.13;14.83;;;;;;;;;;5069470;28;20052;-62
2023/08/24 06:40:46;;;;;;;17.42;15.70;;;;;;;;;;5068117;28;20068;-61
2023/08/24 06:43:11;;;;;;;21.05;14.48;;;;;;;;;;5070046;28;20027;-61
2023/08/24 06:45:36;;;;;;;22.77;16.27;;;;;;;;;;5068443;28;20028;-61
2023/08/24 06:48:02;;;;;;;16.02;14.40;;;;;;;;;;5069705;28;20103;-61
2023/08/24 06:50:28;;;;;;;16.55;13.63;;;;;;;;;;5069826;28;20028;-62
2023/08/24 06:52:53;;;;;;;17.80;13.55;;;;;;;;;;5068519;28;20491;-61
2023/08/24 06:55:18;;;;;;;17.93;13.63;;;;;;;;;;5069301;28;20021;-61
2023/08/24 06:57:47;;;;;;;20.57;14.60;;;;;;;;;;5068159;28;20036;-61
2023/08/24 07:00:14;;;;;;;15.82;13.18;;;;;;;;;;5069855;28;20477;-61
2023/08/24 07:02:40;;;;;;;13.70;12.00;;;;;;;;;;5067658;28;20029;-61
2023/08/24 07:05:05;;;;;;;17.57;12.90;;;;;;;;;;5070117;28;20017;-61
2023/08/24 07:07:30;;;;;;;18.73;13.40;;;;;;;;;;5068068;28;20455;-61
2023/08/24 07:09:56;;;;;;;13.55;11.38;;;;;;;;;;5068340;28;20017;-61
2023/08/24 07:12:21;;;;;;;11.33;10.20;;;;;;;;;;5062052;28;20052;-61
2023/08/24 07:14:46;;;;;;;15.70;11.77;;;;;;;;;;5049754;28;20412;-61
2023/08/24 07:17:11;;;;;;;13.30;11.77;;;;;;;;;;5062054;28;20036;-61
2023/08/24 07:19:36;;;;;;;12.68;11.32;;;;;;;;;;5068879;28;20020;-61
2023/08/24 07:22:02;;;;;;;11.65;10.65;;;;;;;;;;5068121;28;20116;-61
2023/08/24 07:24:28;;;;;;;11.45;10.30;;;;;;;;;;5069372;28;20020;-61
2023/08/24 07:26:53;;;;;;;12.57;11.27;;;;;;;;;;5067877;28;20054;-61
2023/08/24 07:29:20;;;;;;;15.68;11.15;;;;;;;;;;5067978;28;20044;-61
2023/08/24 07:31:45;;;;;;;12.10;9.55;;;;;;;;;;5067125;28;20560;-61
2023/08/24 07:34:10;;;;;;;15.23;9.05;;;;;;;;;;5069203;28;20024;-61
2023/08/24 07:36:35;;;;;;;11.75;10.65;;;;;;;;;;5067718;28;20391;-62
2023/08/24 07:39:00;;;;;;;13.30;10.13;;;;;;;;;;5069241;28;20178;-62
2023/08/24 07:41:25;;;;;;;15.40;11.27;;;;;;;;;;5068081;28;20487;-62
2023/08/24 07:43:51;;;;;;;12.73;11.20;;;;;;;;;;5071748;28;20017;-62
2023/08/24 07:46:16;;;;;;;10.60;9.50;;;;;;;;;;5071531;28;20435;-62
2023/08/24 07:48:41;;;;;;;13.57;11.40;;;;;;;;;;5071130;28;20122;-62
2023/08/24 07:51:07;;;;;;;12.13;10.50;;;;;;;;;;5071597;28;20028;-62
2023/08/24 07:53:32;;;;;;;21.25;12.55;;;;;;;;;;5072704;28;20049;-62
2023/08/24 07:55:58;;;;;;;15.15;10.35;;;;;;;;;;5071229;28;20037;-62
2023/08/24 07:58:24;;;;;;;10.60;8.57;;;;;;;;;;5072486;28;20024;-62
2023/08/24 08:00:50;;;;;;;10.27;8.60;;;;;;;;;;5071328;28;20025;-62
2023/08/24 08:03:15;;;;;;;10.38;8.77;;;;;;;;;;5069266;28;20016;-63
2023/08/24 08:05:40;;;;;;;10.87;9.37;;;;;;;;;;5071405;28;20441;-62
2023/08/24 08:08:05;;;;;;;12.13;10.90;;;;;;;;;;5072731;28;20024;-63
2023/08/24 08:10:30;;;;;;;14.82;11.85;;;;;;;;;;5070474;28;20107;-62
2023/08/24 08:12:55;;;;;;;11.63;10.40;;;;;;;;;;5072707;28;20020;-63
2023/08/24 08:15:21;;;;;;;12.20;9.35;;;;;;;;;;5072248;28;20024;-62
2023/08/24 08:17:46;;;;;;;11.93;8.47;;;;;;;;;;5070610;28;20093;-62
2023/08/24 08:20:13;;;;;;;13.67;9.57;;;;;;;;;;5072513;28;20447;-63
2023/08/24 08:22:39;;;;;;;13.95;10.15;;;;;;;;;;5070416;28;20047;-62
2023/08/24 08:25:04;;;;;;;16.33;8.57;;;;;;;;;;5072164;28;20013;-62
2023/08/24 08:27:30;;;;;;;13.82;8.68;;;;;;;;;;5070827;28;20489;-63
2023/08/24 08:29:55;;;;;;;11.40;8.93;;;;;;;;;;5072430;28;20378;-63
2023/08/24 08:32:20;;;;;;;10.40;9.27;;;;;;;;;;5058256;28;20044;-62
2023/08/24 08:34:45;;;;;;;8.43;7.37;;;;;;;;;;5056987;28;20131;-63
2023/08/24 08:37:11;;;;;;;17.77;7.83;;;;;;;;;;5062151;28;20487;-61
2023/08/24 08:39:36;;;;;;;10.33;7.37;;;;;;;;;;5051522;28;20017;-62
2023/08/24 08:42:01;;;;;;;12.47;6.30;;;;;;;;;;5062517;28;20040;-63
2023/08/24 08:44:29;;;;;;;13.20;7.25;;;;;;;;;;5041040;28;20389;-63
2023/08/24 08:46:54;;;;;;;;;;;;;;;;;;5047415;28;20043;-62
2023/08/24 08:49:20;;;;;;;15.52;8.38;;;;;;;;;;5032226;28;19932;-62
2023/08/24 08:51:45;;;;;;;8.52;7.05;;;;;;;;;;5042073;28;20041;-63
2023/08/24 08:54:11;;;;;;;8.35;7.45;;;;;;;;;;5071513;28;20024;-63
2023/08/24 08:56:36;;;;;;;15.63;7.95;;;;;;;;;;5070381;28;20064;-63
2023/08/24 08:59:04;;;;;;;10.25;6.72;;;;;;;;;;5071509;28;20031;-60
2023/08/24 09:01:29;;;;;;;7.30;6.53;;;;;;;;;;5069449;28;20036;-60
2023/08/24 09:03:56;;;;;;;9.65;7.13;;;;;;;;;;5071601;28;20020;-61
2023/08/24 09:06:22;;;;;;;12.97;7.47;;;;;;;;;;5070182;28;20036;-62
2023/08/24 09:08:48;;;;;;;9.35;6.20;;;;;;;;;;5071328;28;20051;-62
2023/08/24 09:11:14;;;;;;;7.72;5.68;;;;;;;;;;5070212;28;20104;-61
2023/08/24 09:13:39;;;;;;;11.35;6.43;;;;;;;;;;5070948;28;20060;-61
2023/08/24 09:16:08;;;;;;;9.63;5.03;;;;;;;;;;5069558;28;20117;-61
2023/08/24 09:18:35;;;;;;;21.83;5.72;;;;;;;;;;5071309;28;20115;-61
2023/08/24 09:21:07;;;;;;;13.65;6.85;;;;;;;;;;5069854;28;20031;-61
2023/08/24 09:23:32;;;;;;;6.82;5.07;;;;;;;;;;5070698;28;20019;-62
2023/08/24 09:25:57;;;;;;;7.27;5.40;;;;;;;;;;5069236;28;20406;-61
2023/08/24 09:28:24;;;;;;;6.53;4.90;;;;;;;;;;5068472;28;20027;-62
2023/08/24 09:30:51;;;;;;;8.25;6.05;;;;;;;;;;5066627;28;20056;-61
2023/08/24 09:33:18;;;;;;;8.60;5.38;;;;;;;;;;5070701;28;20378;-61
2023/08/24 09:35:43;;;;;;;7.45;5.32;;;;;;;;;;5069326;28;20021;-61
2023/08/24 09:38:18;;;;;;;16.07;6.07;;;;;;;;;;5070386;28;20049;-61
2023/08/24 09:40:50;;;;;;;7.32;4.70;;;;;;;;;;5068795;28;20032;-61
2023/08/24 09:43:15;;;;;;;13.98;5.43;;;;;;;;;;5060786;28;20130;-61
2023/08/24 09:45:48;;;;;;;6.97;5.37;;;;;;;;;;5051257;28;20016;-61
2023/08/24 09:48:13;;;;;;;6.72;3.95;;;;;;;;;;5070879;28;20020;-61
2023/08/24 09:50:39;;;;;;;8.60;4.18;;;;;;;;;;5068955;28;20086;-61
2023/08/24 09:53:04;;;;;;;6.82;4.30;;;;;;;;;;5070250;28;20059;-61
2023/08/24 09:55:35;;;;;;;6.20;3.73;;;;;;;;;;5069268;28;20048;-60
2023/08/24 09:58:01;;;;;;;10.45;4.80;;;;;;;;;;5070688;28;20044;-61
2023/08/24 10:00:27;;;;;;;16.60;4.00;;;;;;;;;;5067803;28;20027;-61
2023/08/24 10:02:55;;;;;;;5.68;4.38;;;;;;;;;;5070116;28;20021;-61
2023/08/24 10:05:22;;;;;;;6.10;3.42;;;;;;;;;;5069326;28;20051;-62
2023/08/24 10:07:52;;;;;;;8.93;4.32;;;;;;;;;;5056435;28;20522;-62
2023/08/24 10:10:19;;;;;;;8.20;3.40;;;;;;;;;;5050445;28;20021;-62
2023/08/24 10:12:47;;;;;;;9.20;4.57;;;;;;;;;;5048684;28;20488;-62
2023/08/24 10:15:12;;;;;;;6.88;4.47;;;;;;;;;;5050566;28;20025;-62
2023/08/24 10:17:39;;;;;;;5.60;3.47;;;;;;;;;;5065272;28;20037;-62
2023/08/24 10:20:06;;;;;;;9.48;5.03;;;;;;;;;;5066261;28;20028;-61
2023/08/24 10:22:33;;;;;;;6.45;4.00;;;;;;;;;;5067731;28;20202;-61
2023/08/24 10:24:59;;;;;;;5.25;3.03;;;;;;;;;;5056036;28;20471;-62
2023/08/24 10:27:26;;;;;;;8.30;4.55;;;;;;;;;;5060551;28;20040;-61
2023/08/24 10:29:51;;;;;;;4.05;2.70;;;;;;;;;;5069187;28;20639;-61
2023/08/24 10:32:17;;;;;;;9.63;4.07;;;;;;;;;;5068936;28;20032;-61
2023/08/24 10:34:42;;;;;;;6.22;3.05;;;;;;;;;;5070578;28;20044;-62
2023/08/24 10:37:08;;;;;;;10.30;4.20;;;;;;;;;;5068359;28;20060;-62
2023/08/24 10:39:35;;;;;;;5.65;3.53;;;;;;;;;;5069664;28;20064;-62
2023/08/24 10:42:00;;;;;;;7.07;3.40;;;;;;;;;;5053517;28;20377;-62
2023/08/24 10:44:35;;;;;;;7.47;3.08;;;;;;;;;;5036825;28;20043;-62
2023/08/24 10:47:07;;;;;;;8.85;2.80;;;;;;;;;;5061900;28;20037;-62
2023/08/24 10:49:33;;;;;;;3.60;2.47;;;;;;;;;;5069975;28;20201;-63
2023/08/24 10:51:58;;;;;;;11.43;4.00;;;;;;;;;;5068326;28;20148;-62
2023/08/24 10:54:32;;;;;;;6.93;4.30;;;;;;;;;;5070559;28;20070;-62
2023/08/24 10:56:58;;;;;;;11.43;3.88;;;;;;;;;;5067695;28;20040;-62
2023/08/24 10:59:23;;;;;;;6.22;4.35;;;;;;;;;;5069883;28;20025;-62
2023/08/24 11:01:52;;;;;;;6.23;3.10;;;;;;;;;;5068636;28;20039;-62
2023/08/24 11:04:17;;;;;;;4.03;2.65;;;;;;;;;;5066460;28;20442;-62
2023/08/24 11:06:53;;;;;;;6.78;3.08;;;;;;;;;;5067961;28;20484;-62
2023/08/24 11:09:18;;;;;;;3.75;2.75;;;;;;;;;;5070071;28;20441;-62
2023/08/24 11:11:55;;;;;;;3.97;3.15;;;;;;;;;;5068716;28;20028;-62
2023/08/24 11:14:21;;;;;;;4.93;3.25;;;;;;;;;;5069311;28;20052;-62
2023/08/24 11:16:47;;;;;;;4.53;3.50;;;;;;;;;;5070217;28;20446;-62
2023/08/24 11:19:13;;;;;;;4.00;3.60;;;;;;;;;;5073794;28;20056;-62
2023/08/24 11:21:42;;;;;;;9.75;4.13;;;;;;;;;;5071038;28;20039;-62
2023/08/24 11:24:08;;;;;;;5.65;3.20;;;;;;;;;;5078595;28;20052;-62
2023/08/24 11:26:34;;;;;;;10.05;4.35;;;;;;;;;;5071487;28;20392;-62
2023/08/24 11:28:59;;;;;;;5.43;3.05;;;;;;;;;;5073700;28;20604;-62
2023/08/24 11:31:24;;;;;;;5.85;2.60;;;;;;;;;;5071442;28;20380;-62
2023/08/24 11:33:55;;;;;;;7.07;2.70;;;;;;;;;;5072562;28;20032;-62
2023/08/24 11:36:20;;;;;;;4.57;3.85;;;;;;;;;;5069656;28;20531;-61
2023/08/24 11:38:47;;;;;;;9.57;4.07;;;;;;;;;;5071374;28;20033;-66
2023/08/24 11:41:12;;;;;;;9.25;3.60;;;;;;;;;;5069324;28;20501;-61
2023/08/24 11:43:38;;;;;;;6.55;2.78;;;;;;;;;;5069359;28;20103;-61
2023/08/24 11:46:03;;;;;;;12.27;4.43;;;;;;;;;;5060334;28;20033;-61
2023/08/24 11:48:29;;;;;;;8.63;4.05;;;;;;;;;;5073078;28;20052;-61
2023/08/24 11:50:54;;;;;;;10.93;4.00;;;;;;;;;;5070246;28;20029;-66
2023/08/24 11:53:19;;;;;;;4.68;3.03;;;;;;;;;;5053822;28;20432;-61
2023/08/24 11:55:45;;;;;;;5.03;3.50;;;;;;;;;;5051363;28;20040;-61
2023/08/24 11:58:13;;;;;;;9.37;3.40;;;;;;;;;;5052268;28;20071;-61
2023/08/24 12:00:38;;;;;;;8.23;3.53;;;;;;;;;;5030820;28;20026;-60
2023/08/24 12:03:03;;;;;;;3.67;3.00;;;;;;;;;;5046990;28;20032;-60
2023/08/24 12:05:29;;;;;;;6.87;2.87;;;;;;;;;;5049668;28;20401;-60
2023/08/24 12:07:54;;;;;;;3.38;2.83;;;;;;;;;;5061399;28;20439;-60
2023/08/24 12:10:20;;;;;;;9.70;4.82;;;;;;;;;;5058974;28;20044;-61
2023/08/24 12:12:46;;;;;;;7.30;3.53;;;;;;;;;;5056464;28;20468;-61
2023/08/24 12:15:20;;;;;;;6.30;3.05;;;;;;;;;;5052219;28;20554;-61
2023/08/24 12:17:46;;;;;;;5.68;3.60;;;;;;;;;;5050868;28;20495;-61
2023/08/24 12:20:19;;;;;;;8.65;4.53;;;;;;;;;;5058023;28;20249;-61
2023/08/24 12:22:44;;;;;;;8.07;4.13;;;;;;;;;;5056508;28;20454;-61
2023/08/24 12:25:09;;;;;;;9.30;3.97;;;;;;;;;;5049675;28;20158;-61
2023/08/24 12:27:34;;;;;;;10.65;3.97;;;;;;;;;;5047207;28;20985;-61
2023/08/24 12:30:00;;;;;;;6.70;3.53;;;;;;;;;;5052345;28;20028;-61
2023/08/24 12:32:29;;;;;;;6.25;3.72;;;;;;;;;;5050004;28;20060;-61
2023/08/24 12:34:55;;;;;;;7.32;4.20;;;;;;;;;;5050302;28;20133;-61
2023/08/24 12:37:20;;;;;;;7.97;4.20;;;;;;;;;;5053145;28;20160;-62
2023/08/24 12:39:45;;;;;;;9.10;5.70;;;;;;;;;;5050713;28;20476;-61
2023/08/24 12:42:11;;;;;;;8.90;4.53;;;;;;;;;;5063543;28;20120;-61
2023/08/24 12:44:36;;;;;;;5.72;4.28;;;;;;;;;;5071460;28;20729;-61
2023/08/24 12:47:02;;;;;;;7.53;4.70;;;;;;;;;;5060817;28;20048;-61
2023/08/24 12:49:27;;;;;;;6.72;4.35;;;;;;;;;;5051350;28;20536;-61
2023/08/24 12:51:52;;;;;;;6.97;4.57;;;;;;;;;;5062276;28;20044;-62
2023/08/24 12:54:18;;;;;;;10.27;5.57;;;;;;;;;;5071531;28;20055;-61
2023/08/24 12:56:43;;;;;;;7.90;4.47;;;;;;;;;;5069961;28;20068;-61
2023/08/24 12:59:08;;;;;;;7.10;4.22;;;;;;;;;;5070935;28;20024;-61
2023/08/24 13:01:33;;;;;;;16.90;5.10;;;;;;;;;;5069312;28;20119;-61
2023/08/24 13:03:58;;;;;;;6.13;3.15;;;;;;;;;;5071388;28;20028;-61
2023/08/24 13:06:24;;;;;;;10.33;4.10;;;;;;;;;;5068769;28;20101;-60
2023/08/24 13:08:49;;;;;;;4.78;3.60;;;;;;;;;;5059369;28;20020;-60
2023/08/24 13:11:14;;;;;;;7.63;4.40;;;;;;;;;;5061662;28;20032;-61
2023/08/24 13:13:40;;;;;;;6.53;4.07;;;;;;;;;;5070638;28;20029;-61
2023/08/24 13:16:05;;;;;;;10.38;5.00;;;;;;;;;;5069720;28;20036;-61
2023/08/24 13:18:30;;;;;;;9.95;5.00;;;;;;;;;;5070434;28;20060;-61
2023/08/24 13:20:55;;;;;;;7.68;4.38;;;;;;;;;;5069317;28;20372;-61
2023/08/24 13:23:20;;;;;;;7.13;3.97;;;;;;;;;;5071071;28;20050;-61
2023/08/24 13:25:45;;;;;;;7.23;5.60;;;;;;;;;;5069810;28;20052;-61
2023/08/24 13:28:11;;;;;;;8.80;4.90;;;;;;;;;;5070876;28;20020;-61
2023/08/24 13:30:36;;;;;;;22.73;10.53;;;;;;;;;;5069659;28;20020;-60
2023/08/24 13:33:01;;;;;;;223.27;99.53;;;;;;;;;;5063545;28;20086;-61
2023/08/24 13:35:26;;;;;;;12.47;9.20;;;;;;;;;;5049109;28;20424;-56
2023/08/24 13:37:51;;;;;;;16.03;7.80;;;;;;;;;;5059894;28;20052;-61
2023/08/24 13:40:16;;;;;;;7.30;5.57;;;;;;;;;;5052248;28;20075;-61
2023/08/24 13:42:42;;;;;;;9.13;4.97;;;;;;;;;;5069158;28;20032;-61
2023/08/24 13:45:07;;;;;;;6.80;4.10;;;;;;;;;;5063815;28;20542;-61
2023/08/24 13:47:32;;;;;;;9.52;4.97;;;;;;;;;;5063023;28;20039;-61
2023/08/24 13:49:57;;;;;;;11.40;4.60;;;;;;;;;;5061078;28;20103;-61
2023/08/24 13:52:23;;;;;;;6.60;3.87;;;;;;;;;;5066797;28;20033;-61
2023/08/24 13:54:48;;;;;;;9.53;5.20;;;;;;;;;;5054217;28;20024;-61
2023/08/24 13:57:13;;;;;;;11.17;7.90;;;;;;;;;;5062852;28;20455;-61
2023/08/24 13:59:38;;;;;;;10.20;7.07;;;;;;;;;;5070534;28;20471;-61
2023/08/24 14:02:04;;;;;;;10.48;7.88;;;;;;;;;;5068707;28;20064;-61
2023/08/24 14:04:29;;;;;;;16.10;11.45;;;;;;;;;;5069975;28;20066;-61
2023/08/24 14:06:54;;;;;;;11.73;7.70;;;;;;;;;;5069058;28;20495;-61
2023/08/24 14:09:19;;;;;;;9.20;4.33;;;;;;;;;;5070233;28;20438;-61
2023/08/24 14:11:45;;;;;;;10.67;5.80;;;;;;;;;;5068918;28;20036;-61
2023/08/24 14:14:10;;;;;;;12.70;8.37;;;;;;;;;;5070678;28;20490;-61
2023/08/24 14:16:35;;;;;;;10.82;8.05;;;;;;;;;;5068781;28;21001;-61
2023/08/24 14:19:00;;;;;;;9.47;6.50;;;;;;;;;;5066116;28;20024;-61